Time;durP1;ratioP1;P1;durP2;ratioP2;P2;SDS_P1;SDS_P2;PMS_P1;PMS_P2;Temp;Humidity;BMP_temperature;BMP_pressure;BME280_temperature;BME280_humidity;BME280_pressure;Samples;Min_cycle;Max_cycle;Signal;HPM_P1;HPM_P2
2022/01/20 00:00:18;;;;;;;53.28;46.08;;;;;;;-1.86;59.36;95593.22;5116572;28;20240;-68
2022/01/20 00:02:55;;;;;;;53.17;45.63;;;;;;;-1.95;59.19;95586.72;5116097;28;20585;-68
2022/01/20 00:05:40;;;;;;;55.75;46.42;;;;;;;-2.06;59.02;95593.13;5116590;27;20190;-68
2022/01/20 00:08:17;;;;;;;54.00;45.15;;;;;;;-2.03;59.34;95592.63;5116382;28;20187;-68
2022/01/20 00:27:13;;;;;;;46.88;41.22;;;;;;;-2.14;59.72;95574.66;5116074;28;20188;-68
2022/01/20 00:32:34;;;;;;;47.40;39.88;;;;;;;-2.14;59.03;95569.25;5110208;28;20214;-67
2022/01/20 00:37:45;;;;;;;47.25;40.22;;;;;;;-2.14;59.46;95562.00;5114204;28;20289;-67
2022/01/20 00:40:12;;;;;;;45.33;40.40;;;;;;;-2.17;60.00;95565.22;5114967;28;20204;-67
2022/01/20 00:42:39;;;;;;;45.65;39.97;;;;;;;-2.22;59.97;95567.88;5115387;28;20234;-67
2022/01/20 00:45:07;;;;;;;49.72;41.38;;;;;;;-2.26;60.03;95564.88;5115742;28;20187;-67
2022/01/20 00:47:35;;;;;;;45.83;39.72;;;;;;;-2.26;60.22;95559.47;5115778;28;20184;-67
2022/01/20 00:50:02;;;;;;;44.15;39.47;;;;;;;-2.21;59.97;95561.41;5114048;28;20196;-67
2022/01/20 00:52:29;;;;;;;45.03;40.10;;;;;;;-2.15;59.80;95563.06;5115686;28;20192;-68
2022/01/20 00:54:56;;;;;;;48.08;40.90;;;;;;;-2.14;60.05;95562.00;5115591;28;20207;-67
2022/01/20 00:57:22;;;;;;;45.10;40.20;;;;;;;-2.10;59.49;95554.19;5115060;28;20199;-67
2022/01/20 00:59:49;;;;;;;47.72;42.50;;;;;;;-2.14;59.54;95553.06;5114630;28;20199;-67
2022/01/20 01:02:16;;;;;;;49.60;44.28;;;;;;;-2.14;59.71;95548.47;5115704;28;20259;-67
2022/01/20 01:04:44;;;;;;;49.45;43.13;;;;;;;-2.09;59.91;95556.63;5115560;28;20206;-67
2022/01/20 01:09:52;;;;;;;51.30;45.60;;;;;;;-2.10;60.10;95554.19;5097177;28;20203;-67
2022/01/20 01:12:28;;;;;;;61.67;52.67;;;;;;;-2.22;59.90;95544.34;5114310;28;20210;-67
2022/01/20 01:14:55;;;;;;;57.53;49.72;;;;;;;-2.27;60.31;95562.44;5114463;28;20195;-67
2022/01/20 01:20:15;;;;;;;48.40;43.20;;;;;;;-2.19;60.04;95551.13;5115475;28;20508;-66
2022/01/20 01:22:42;;;;;;;47.72;42.55;;;;;;;-2.21;60.13;95546.00;5114147;28;20218;-66
2022/01/20 01:25:09;;;;;;;49.63;43.47;;;;;;;-2.19;59.85;95540.31;5115369;28;20186;-66
2022/01/20 01:27:39;;;;;;;45.38;40.47;;;;;;;-2.15;60.05;95537.91;5114389;28;20199;-66
2022/01/20 01:30:18;;;;;;;51.10;45.65;;;;;;;-2.22;60.17;95538.94;5114675;28;20295;-67
2022/01/20 01:32:50;;;;;;;51.22;45.70;;;;;;;-2.27;60.52;95532.72;5115305;28;20195;-68
2022/01/20 01:35:20;;;;;;;53.85;47.72;;;;;;;-2.39;60.13;95532.09;5115123;28;20219;-68
2022/01/20 01:40:32;;;;;;;49.67;44.45;;;;;;;-2.69;60.67;95531.63;5114974;28;20176;-67
2022/01/20 01:43:02;;;;;;;48.33;43.05;;;;;;;-2.68;60.72;95525.16;5114858;28;20284;-68
2022/01/20 01:45:31;;;;;;;47.75;42.85;;;;;;;-2.66;60.49;95522.97;5114606;28;20199;-67
2022/01/20 01:47:58;;;;;;;49.17;43.88;;;;;;;-2.73;60.73;95525.09;5115286;28;20195;-68
2022/01/20 01:50:27;;;;;;;48.30;43.10;;;;;;;-2.76;60.73;95516.69;5115186;28;20203;-68
2022/01/20 01:52:55;;;;;;;46.63;41.90;;;;;;;-2.87;60.79;95512.28;5113897;28;20192;-67
2022/01/20 01:55:22;;;;;;;46.95;42.10;;;;;;;-2.89;61.16;95517.16;5115128;28;20208;-66
2022/01/20 01:57:49;;;;;;;48.10;42.80;;;;;;;-2.85;60.79;95504.75;5115216;28;20186;-67
2022/01/20 02:00:18;;;;;;;46.47;41.70;;;;;;;-2.84;60.95;95492.88;5114822;28;20194;-67
2022/01/20 02:02:45;;;;;;;46.97;41.90;;;;;;;-2.79;61.02;95498.34;5115960;28;20215;-66
2022/01/20 02:05:14;;;;;;;45.45;40.65;;;;;;;-2.89;60.87;95501.75;5119079;28;20182;-66
2022/01/20 02:18:46;;;;;;;45.33;40.47;;;;;;;-2.81;60.92;95487.78;5118181;28;20180;-66
2022/01/20 02:21:14;;;;;;;45.85;41.10;;;;;;;-2.84;60.89;95484.78;5118477;28;20184;-66
2022/01/20 02:23:42;;;;;;;45.15;40.35;;;;;;;-2.95;61.21;95478.47;5117950;28;20200;-66
2022/01/20 02:26:09;;;;;;;44.58;39.88;;;;;;;-2.98;61.51;95479.84;5118374;28;20271;-66
2022/01/20 02:28:36;;;;;;;44.08;39.28;;;;;;;-2.97;61.78;95470.66;5117371;28;20192;-66
2022/01/20 02:31:03;;;;;;;43.53;39.03;;;;;;;-2.99;61.99;95471.97;5118260;28;20190;-67
2022/01/20 02:33:31;;;;;;;42.50;38.10;;;;;;;-2.98;62.12;95470.91;5117521;28;20204;-67
2022/01/20 02:36:04;;;;;;;42.90;38.50;;;;;;;-2.83;62.10;95462.94;5117925;28;20294;-67
2022/01/20 02:38:37;;;;;;;42.10;37.60;;;;;;;-2.83;62.09;95462.94;5117884;28;20565;-67
2022/01/20 02:46:37;;;;;;;41.13;36.83;;;;;;;-2.81;62.13;95455.38;5117681;28;20608;-67
2022/01/20 02:49:04;;;;;;;42.05;37.55;;;;;;;-2.76;61.81;95465.38;5117909;28;20183;-67
2022/01/20 02:51:30;;;;;;;42.42;37.50;;;;;;;-2.72;61.84;95451.13;5117623;28;20184;-67
2022/01/20 02:53:59;;;;;;;43.63;39.03;;;;;;;-2.72;61.62;95455.72;5117818;28;20192;-67
2022/01/20 02:56:25;;;;;;;42.42;38.05;;;;;;;-2.77;61.92;95455.66;5116903;28;20227;-67
2022/01/20 02:58:52;;;;;;;42.30;37.88;;;;;;;-2.77;62.13;95459.19;5117649;28;20187;-67
2022/01/20 03:01:19;;;;;;;42.17;37.72;;;;;;;-2.71;62.22;95457.34;5117723;28;20188;-67
2022/01/20 03:03:46;;;;;;;43.67;39.05;;;;;;;-2.69;62.21;95452.47;5117681;28;20184;-67
2022/01/20 03:06:13;;;;;;;43.22;38.70;;;;;;;-2.78;61.77;95444.06;5116765;28;20203;-67
2022/01/20 03:08:40;;;;;;;43.28;38.97;;;;;;;-2.84;61.81;95441.59;5117463;28;20198;-67
2022/01/20 03:11:09;;;;;;;47.97;42.75;;;;;;;-2.96;61.28;95445.28;5116565;28;20249;-67
2022/01/20 03:13:35;;;;;;;48.70;43.75;;;;;;;-3.01;61.70;95449.84;5117177;28;20188;-67
2022/01/20 03:16:02;;;;;;;49.90;44.72;;;;;;;-3.05;61.51;95451.41;5117312;28;20200;-67
2022/01/20 03:18:29;;;;;;;47.55;42.58;;;;;;;-3.07;61.72;95450.88;5117385;28;20195;-67
2022/01/20 03:20:56;;;;;;;50.95;45.55;;;;;;;-3.09;61.92;95445.72;5117289;28;20202;-67
2022/01/20 03:23:23;;;;;;;50.72;45.55;;;;;;;-3.07;62.18;95446.28;5117268;28;20202;-67
2022/01/20 03:25:49;;;;;;;48.88;43.75;;;;;;;-3.05;62.07;95448.72;5116954;28;20199;-66
2022/01/20 03:28:18;;;;;;;46.28;41.55;;;;;;;-3.01;62.27;95445.25;5116419;28;20203;-67
2022/01/20 03:30:44;;;;;;;45.10;40.42;;;;;;;-2.93;62.54;95438.56;5117041;28;20191;-67
2022/01/20 03:33:13;;;;;;;45.85;41.00;;;;;;;-2.91;61.91;95441.81;5117240;28;20176;-67
2022/01/20 03:35:41;;;;;;;43.58;38.95;;;;;;;-2.86;62.11;95425.66;5117110;28;20203;-66
2022/01/20 03:38:08;;;;;;;43.97;39.42;;;;;;;-2.79;62.12;95430.84;5116709;28;20202;-66
2022/01/20 03:40:34;;;;;;;50.55;45.47;;;;;;;-2.81;61.77;95417.59;5116588;28;20184;-66
2022/01/20 03:43:01;;;;;;;46.28;41.35;;;;;;;-2.84;61.96;95422.69;5115576;28;20250;-67
2022/01/20 03:45:29;;;;;;;47.30;42.42;;;;;;;-2.81;62.07;95422.97;5116710;28;20188;-67
2022/01/20 03:48:06;;;;;;;46.45;41.85;;;;;;;-2.85;61.58;95429.97;5116177;28;20207;-67
2022/01/20 03:53:17;;;;;;;53.88;48.28;;;;;;;-3.05;61.73;95422.56;5116182;28;20294;-68
2022/01/20 03:55:44;;;;;;;52.65;47.08;;;;;;;-3.08;61.63;95416.88;5115755;28;20203;-67
2022/01/20 03:58:11;;;;;;;53.83;48.30;;;;;;;-3.08;61.77;95420.38;5115783;28;20202;-67
2022/01/20 04:00:39;;;;;;;53.75;47.90;;;;;;;-3.10;61.46;95424.41;5115595;28;20199;-67
2022/01/20 04:03:06;;;;;;;53.63;48.13;;;;;;;-3.13;61.91;95420.31;5117176;28;20191;-67
2022/01/20 04:05:33;;;;;;;55.97;50.15;;;;;;;-3.15;61.78;95417.09;5116446;28;20202;-67
2022/01/20 04:08:00;;;;;;;54.67;49.17;;;;;;;-3.15;62.24;95419.78;5115916;28;20187;-67
2022/01/20 04:10:27;;;;;;;57.10;51.20;;;;;;;-3.24;62.01;95418.63;5116343;28;20199;-67
2022/01/20 04:12:56;;;;;;;56.15;50.40;;;;;;;-3.27;62.20;95413.72;5116008;28;20196;-67
2022/01/20 04:15:28;;;;;;;57.60;51.95;;;;;;;-3.27;62.12;95413.72;5116311;28;20190;-67
2022/01/20 04:18:01;;;;;;;54.00;48.45;;;;;;;-3.25;62.51;95415.09;5115403;28;20192;-67
2022/01/20 04:20:28;;;;;;;51.92;46.63;;;;;;;-3.18;62.57;95418.41;5115236;28;20199;-67
2022/01/20 04:22:55;;;;;;;50.72;45.47;;;;;;;-3.08;62.40;95408.78;5115133;28;20187;-67
2022/01/20 04:25:21;;;;;;;49.53;44.42;;;;;;;-3.05;62.37;95410.94;5115507;28;20188;-67
2022/01/20 04:27:48;;;;;;;46.67;41.88;;;;;;;-3.01;62.36;95410.19;5116265;28;20183;-67
2022/01/20 04:30:15;;;;;;;57.47;51.53;;;;;;;-3.12;62.19;95410.34;5115392;28;20196;-67
2022/01/20 04:32:42;;;;;;;55.00;49.40;;;;;;;-3.17;62.41;95419.22;5114968;28;20199;-67
2022/01/20 04:35:10;;;;;;;56.63;50.92;;;;;;;-3.21;62.45;95415.41;5115360;28;20210;-67
2022/01/20 04:37:37;;;;;;;57.08;51.10;;;;;;;-3.26;62.09;95418.88;5115582;28;20537;-67
2022/01/20 04:40:05;;;;;;;129.27;117.97;;;;;;;-3.26;62.19;95410.78;5115681;28;20275;-67
2022/01/20 04:42:35;;;;;;;93.15;84.35;;;;;;;-3.27;62.34;95411.03;5114491;28;20610;-67
2022/01/20 04:45:08;;;;;;;77.00;69.32;;;;;;;-3.26;62.37;95415.38;5115593;28;20187;-68
2022/01/20 04:47:44;;;;;;;59.38;53.35;;;;;;;-3.21;62.31;95404.63;5115366;28;20183;-68
2022/01/20 04:58:30;;;;;;;68.05;61.30;;;;;;;-3.29;62.28;95405.91;5114506;28;20655;-68
2022/01/20 05:00:57;;;;;;;69.82;63.03;;;;;;;-3.28;62.19;95417.50;5114525;28;20204;-71
2022/01/20 05:03:25;;;;;;;58.92;52.85;;;;;;;-3.24;62.63;95419.41;5115827;28;20188;-69
2022/01/20 05:05:53;;;;;;;61.25;55.28;;;;;;;-3.21;62.64;95416.22;5114761;28;20199;-68
2022/01/20 05:08:22;;;;;;;58.80;53.20;;;;;;;-3.26;62.42;95416.19;5114840;28;20427;-67
2022/01/20 05:10:50;;;;;;;58.05;52.33;;;;;;;-3.30;62.57;95411.56;5114612;28;20206;-68
2022/01/20 05:13:22;;;;;;;56.08;50.63;;;;;;;-3.29;63.03;95405.09;5115005;28;20650;-66
2022/01/20 05:15:49;;;;;;;51.45;46.33;;;;;;;-3.22;62.69;95403.00;5115505;28;20508;-68
2022/01/20 05:18:16;;;;;;;54.10;48.78;;;;;;;-3.16;62.51;95401.94;5115485;28;20184;-68
2022/01/20 05:20:43;;;;;;;53.85;48.75;;;;;;;-3.20;62.56;95398.13;5115210;28;20184;-67
2022/01/20 05:23:11;;;;;;;51.22;46.05;;;;;;;-3.23;62.59;95404.88;5115547;28;20276;-67
2022/01/20 05:25:38;;;;;;;51.05;46.15;;;;;;;-3.18;62.66;95399.50;5115531;28;20176;-67
2022/01/20 05:28:05;;;;;;;54.83;49.65;;;;;;;-3.19;62.28;95403.28;5115524;28;20190;-67
2022/01/20 05:30:32;;;;;;;61.92;55.97;;;;;;;-3.27;62.19;95400.25;5114165;28;20204;-67
2022/01/20 05:33:00;;;;;;;62.45;56.50;;;;;;;-3.32;62.23;95408.31;5114995;28;20188;-67
2022/01/20 05:35:27;;;;;;;56.83;51.45;;;;;;;-3.34;62.75;95416.66;5115341;28;20188;-68
2022/01/20 05:37:54;;;;;;;62.13;56.20;;;;;;;-3.34;62.87;95416.66;5118899;28;20230;-68
2022/01/20 05:40:23;;;;;;;83.45;75.90;;;;;;;-3.35;62.85;95411.50;5118493;28;20200;-68
2022/01/20 05:42:50;;;;;;;66.28;59.05;;;;;;;-3.27;62.51;95414.56;5118683;28;20227;-66
2022/01/20 05:45:16;;;;;;;59.90;53.38;;;;;;;-3.18;62.39;95406.81;5119144;28;20188;-66
2022/01/20 05:47:47;;;;;;;63.65;56.08;;;;;;;-3.09;62.28;95412.53;5118858;28;20596;-66
2022/01/20 05:50:15;;;;;;;53.67;48.13;;;;;;;-3.02;62.26;95418.50;5118238;28;20198;-66
2022/01/20 05:52:42;;;;;;;47.45;42.55;;;;;;;-3.02;62.38;95418.50;5118652;28;20610;-66
2022/01/20 05:55:11;;;;;;;48.40;42.97;;;;;;;-3.02;62.26;95413.91;5118759;28;20200;-66
2022/01/20 05:57:40;;;;;;;45.88;40.97;;;;;;;-3.00;62.51;95419.09;5117873;28;20639;-66
2022/01/20 06:00:10;;;;;;;42.45;37.90;;;;;;;-3.00;61.96;95416.38;5119075;28;20199;-66
2022/01/20 06:03:36;;;;;;;47.95;42.92;;;;;;;-2.99;62.08;95408.00;5117967;28;20227;-66
2022/01/20 06:05:24;;;;;;;50.63;45.22;;;;;;;-2.96;61.93;95417.47;5117395;28;20268;-66
2022/01/20 06:07:51;;;;;;;51.25;45.90;;;;;;;-2.93;62.05;95406.19;5118147;28;20187;-66
2022/01/20 06:10:18;;;;;;;49.60;41.53;;;;;;;-3.00;61.92;95411.78;5118029;28;20203;-67
2022/01/20 06:12:46;;;;;;;63.85;57.67;;;;;;;-3.12;61.69;95411.19;5118056;28;20324;-68
2022/01/20 06:15:13;;;;;;;63.63;57.67;;;;;;;-3.19;62.23;95415.97;5118733;28;20188;-68
2022/01/20 06:17:40;;;;;;;68.28;61.25;;;;;;;-3.18;62.26;95407.59;5117636;28;20250;-67
2022/01/20 06:20:08;;;;;;;74.63;67.28;;;;;;;-3.20;62.18;95420.53;5117417;28;20428;-68
2022/01/20 06:22:35;;;;;;;76.88;69.05;;;;;;;-3.20;62.38;95412.44;5118577;28;20245;-69
2022/01/20 06:25:02;;;;;;;56.90;51.20;;;;;;;-3.09;61.56;95410.63;5117295;28;20192;-66
2022/01/20 06:27:29;;;;;;;57.22;51.40;;;;;;;-3.02;61.10;95422.03;5118528;28;20184;-66
2022/01/20 06:29:57;;;;;;;64.30;57.55;;;;;;;-2.98;60.97;95414.22;5117857;28;20200;-66
2022/01/20 06:32:24;;;;;;;53.25;47.78;;;;;;;-2.91;61.05;95418.31;5117399;28;20222;-66
2022/01/20 06:34:51;;;;;;;44.88;40.03;;;;;;;-2.78;60.84;95430.56;5118196;28;20188;-66
2022/01/20 06:37:18;;;;;;;58.60;52.72;;;;;;;-2.66;60.09;95425.78;5117442;28;20216;-66
2022/01/20 06:39:45;;;;;;;62.75;56.35;;;;;;;-2.59;59.86;95420.16;5117769;28;20510;-66
2022/01/20 06:42:11;;;;;;;54.03;48.13;;;;;;;-2.52;59.89;95422.63;5117878;28;20242;-66
2022/01/20 06:44:38;;;;;;;57.05;51.25;;;;;;;-2.44;59.91;95409.41;5117821;28;20555;-66
2022/01/20 06:47:07;;;;;;;53.08;47.35;;;;;;;-2.37;60.33;95411.06;5118065;28;20179;-67
2022/01/20 06:49:33;;;;;;;39.22;35.22;;;;;;;-2.36;59.84;95407.28;5116421;28;20199;-66
2022/01/20 06:52:00;;;;;;;53.60;48.40;;;;;;;-2.40;60.02;95411.59;5117036;28;20603;-65
2022/01/20 06:54:27;;;;;;;54.42;48.90;;;;;;;-2.44;60.21;95397.81;5117109;28;20196;-66
2022/01/20 06:56:54;;;;;;;47.10;42.47;;;;;;;-2.40;60.27;95398.09;5116885;28;20220;-67
2022/01/20 06:59:21;;;;;;;31.40;28.15;;;;;;;-2.31;59.39;95396.53;5117773;28;20186;-67
2022/01/20 07:01:49;;;;;;;29.88;27.23;;;;;;;-2.22;58.87;95405.72;5118029;28;20275;-66
2022/01/20 07:04:17;;;;;;;27.15;24.35;;;;;;;-2.17;58.35;95405.78;5116840;28;20216;-66
2022/01/20 07:06:44;;;;;;;26.80;24.25;;;;;;;-2.08;58.75;95406.06;5117550;28;20270;-66
2022/01/20 07:09:11;;;;;;;25.23;22.67;;;;;;;-1.99;58.48;95404.47;5117073;28;20209;-66
2022/01/20 07:11:38;;;;;;;21.50;19.30;;;;;;;-1.91;58.04;95405.84;5118047;28;20192;-66
2022/01/20 07:14:06;;;;;;;22.90;20.60;;;;;;;-1.79;57.80;95415.34;5117317;28;20172;-66
2022/01/20 07:16:32;;;;;;;20.23;18.10;;;;;;;-1.61;56.88;95407.81;5117106;28;20492;-65
2022/01/20 07:18:59;;;;;;;19.73;17.75;;;;;;;-1.49;56.55;95416.47;5117698;28;20176;-66
2022/01/20 07:21:28;;;;;;;19.02;17.13;;;;;;;-1.37;56.45;95427.06;5117639;28;20263;-66
2022/01/20 07:23:56;;;;;;;19.52;17.52;;;;;;;-1.29;56.51;95413.00;5117524;28;20184;-67
2022/01/20 07:26:23;;;;;;;20.73;18.73;;;;;;;-1.24;56.68;95415.69;5117024;28;20570;-67
2022/01/20 07:28:49;;;;;;;21.92;19.73;;;;;;;-1.15;56.31;95402.44;5116292;28;20192;-66
2022/01/20 07:31:20;;;;;;;20.88;18.75;;;;;;;-1.06;55.58;95396.19;5117338;28;20184;-67
2022/01/20 07:33:47;;;;;;;21.17;19.08;;;;;;;-0.96;55.71;95398.09;5117253;28;20195;-66
2022/01/20 07:36:14;;;;;;;22.25;19.98;;;;;;;-0.88;54.86;95402.97;5117278;28;20188;-67
2022/01/20 07:38:42;;;;;;;21.27;19.17;;;;;;;-0.76;55.15;95397.28;5115752;28;20651;-67
2022/01/20 07:41:09;;;;;;;18.10;15.70;;;;;;;-0.68;55.00;95393.19;5116578;28;20596;-67
2022/01/20 07:43:36;;;;;;;17.35;15.55;;;;;;;-0.54;54.50;95384.22;5115965;28;20200;-66
2022/01/20 07:46:03;;;;;;;18.40;15.52;;;;;;;-0.37;54.17;95399.34;5116000;28;20596;-67
2022/01/20 07:48:30;;;;;;;18.35;16.50;;;;;;;-0.26;53.46;95393.59;5114792;28;20424;-67
2022/01/20 07:50:57;;;;;;;18.45;16.38;;;;;;;-0.15;53.70;95397.09;5116728;28;20188;-66
2022/01/20 07:53:23;;;;;;;17.42;15.60;;;;;;;-0.02;53.53;95392.97;5117030;28;20194;-67
2022/01/20 07:55:52;;;;;;;18.40;16.45;;;;;;;0.17;53.26;95401.28;5116564;28;20188;-67
2022/01/20 07:58:19;;;;;;;17.17;15.23;;;;;;;0.31;52.54;95393.38;5116806;28;20211;-67
2022/01/20 08:00:46;;;;;;;17.00;15.20;;;;;;;0.42;51.47;95397.63;5115378;28;20180;-67
2022/01/20 08:03:12;;;;;;;17.98;16.25;;;;;;;0.54;51.53;95389.94;5116444;28;20195;-67
2022/01/20 08:05:39;;;;;;;18.50;16.63;;;;;;;0.69;51.81;95403.44;5115119;27;20440;-68
2022/01/20 08:08:06;;;;;;;18.08;16.25;;;;;;;0.84;51.39;95397.09;5115558;28;20199;-69
2022/01/20 08:10:34;;;;;;;21.40;17.00;;;;;;;0.94;51.23;95402.44;5116383;28;20182;-69
2022/01/20 08:13:03;;;;;;;20.65;17.80;;;;;;;1.05;51.09;95405.84;5116358;28;20188;-69
2022/01/20 08:15:29;;;;;;;19.85;17.17;;;;;;;1.18;50.18;95407.94;5116301;28;20190;-69
2022/01/20 08:17:56;;;;;;;21.67;17.35;;;;;;;1.32;50.70;95408.09;5115022;28;20224;-68
2022/01/20 08:20:23;;;;;;;21.08;18.00;;;;;;;1.46;50.26;95402.78;5116267;28;20191;-67
2022/01/20 08:22:50;;;;;;;24.17;18.45;;;;;;;1.59;50.10;95401.28;5115377;28;20202;-68
2022/01/20 08:25:19;;;;;;;25.88;19.60;;;;;;;1.71;49.49;95399.00;5115596;28;20211;-68
2022/01/20 08:27:47;;;;;;;22.70;19.27;;;;;;;1.82;49.49;95389.63;5115874;28;20516;-68
2022/01/20 08:30:16;;;;;;;21.23;18.83;;;;;;;1.97;48.99;95387.84;5116047;28;20206;-69
2022/01/20 08:32:44;;;;;;;23.38;20.85;;;;;;;2.10;48.22;95376.22;5115631;28;20187;-68
2022/01/20 08:35:11;;;;;;;23.83;20.60;;;;;;;2.21;48.76;95380.44;5114813;28;20619;-68
2022/01/20 08:37:40;;;;;;;25.23;22.23;;;;;;;2.35;48.21;95383.25;5115968;28;20215;-68
2022/01/20 08:40:11;;;;;;;25.92;22.50;;;;;;;2.45;47.09;95383.09;5115389;28;20204;-68
2022/01/20 08:42:38;;;;;;;26.10;21.08;;;;;;;2.54;48.57;95378.63;5115973;28;20243;-68
2022/01/20 08:45:05;;;;;;;24.08;21.38;;;;;;;2.72;48.18;95376.19;5114658;28;20195;-67
2022/01/20 08:47:34;;;;;;;24.67;22.05;;;;;;;2.80;47.22;95370.09;5114844;28;20202;-67
2022/01/20 08:50:03;;;;;;;25.15;22.15;;;;;;;2.98;47.95;95358.34;5115557;28;20202;-67
2022/01/20 08:52:33;;;;;;;27.13;22.55;;;;;;;3.16;46.99;95362.13;5114733;28;20203;-67
2022/01/20 08:55:00;;;;;;;26.10;23.30;;;;;;;3.31;45.86;95364.59;5116001;28;20580;-67
2022/01/20 08:57:27;;;;;;;29.70;23.45;;;;;;;3.40;45.39;95361.97;5114485;28;20226;-67
2022/01/20 08:59:55;;;;;;;26.23;23.00;;;;;;;3.54;46.62;95359.28;5115750;28;20190;-68
2022/01/20 09:02:22;;;;;;;25.77;22.95;;;;;;;3.69;46.56;95369.09;5115876;28;20176;-67
2022/01/20 09:04:51;;;;;;;28.45;23.75;;;;;;;3.83;45.82;95354.34;5115037;28;20218;-68
2022/01/20 09:07:18;;;;;;;26.63;23.48;;;;;;;3.98;44.99;95364.16;5115286;28;20202;-68
2022/01/20 09:09:47;;;;;;;26.50;23.83;;;;;;;4.13;44.64;95359.50;5114795;28;20192;-67
2022/01/20 09:15:27;;;;;;;28.70;25.60;;;;;;;4.25;45.07;95352.41;5118233;28;20183;-67
2022/01/20 09:17:51;;;;;;;28.80;25.85;;;;;;;4.64;43.18;95350.97;5118795;28;20219;-67
2022/01/20 09:20:19;;;;;;;28.15;25.20;;;;;;;4.75;44.33;95348.81;5119665;28;20600;-67
2022/01/20 09:22:48;;;;;;;31.40;28.17;;;;;;;4.95;43.49;95348.34;5119959;28;20196;-68
2022/01/20 09:25:15;;;;;;;30.40;27.20;;;;;;;5.13;43.83;95349.28;5118851;28;20207;-67
2022/01/20 09:27:42;;;;;;;31.83;27.30;;;;;;;5.28;43.07;95343.44;5119241;28;20187;-67
2022/01/20 09:30:09;;;;;;;28.38;25.38;;;;;;;5.40;43.48;95331.09;5119614;28;20180;-66
2022/01/20 09:32:39;;;;;;;31.48;26.80;;;;;;;5.54;42.55;95327.16;5118221;28;20195;-66
2022/01/20 09:35:06;;;;;;;30.35;26.98;;;;;;;5.62;43.36;95317.38;5119118;28;20185;-66
2022/01/20 09:37:38;;;;;;;31.75;26.88;;;;;;;5.73;42.77;95321.44;5119535;28;20273;-66
2022/01/20 09:40:07;;;;;;;28.85;25.60;;;;;;;5.83;42.00;95316.81;5119387;28;20192;-66
2022/01/20 09:42:34;;;;;;;30.92;26.13;;;;;;;6.12;42.90;95308.88;5118378;28;20231;-67
2022/01/20 09:45:01;;;;;;;29.98;26.73;;;;;;;6.57;41.12;95307.81;5119269;27;20184;-68
2022/01/20 09:47:28;;;;;;;40.00;33.33;;;;;;;6.78;40.59;95297.03;5118933;28;20192;-67
2022/01/20 09:49:54;;;;;;;41.45;34.58;;;;;;;6.80;40.35;95292.84;5118881;28;20615;-67
2022/01/20 09:52:22;;;;;;;40.75;31.35;;;;;;;7.03;40.78;95284.41;5118200;28;20203;-67
2022/01/20 09:54:50;;;;;;;25.25;18.65;;;;;;;7.48;39.37;95277.38;5118777;28;20279;-67
2022/01/20 09:57:17;;;;;;;25.05;15.98;;;;;;;7.93;37.50;95267.81;5118670;28;20188;-67
2022/01/20 09:59:44;;;;;;;21.83;16.38;;;;;;;8.33;37.13;95264.69;5118079;28;20211;-67
2022/01/20 10:02:18;;;;;;;17.35;12.68;;;;;;;8.67;36.60;95264.44;5118117;28;20199;-67
2022/01/20 10:04:44;;;;;;;20.33;12.90;;;;;;;8.92;35.71;95246.09;5118074;28;20203;-67
2022/01/20 10:07:13;;;;;;;13.07;10.70;;;;;;;9.12;35.04;95238.16;5118700;28;20199;-67
2022/01/20 10:09:42;;;;;;;13.77;8.60;;;;;;;9.13;33.13;95237.81;5117861;28;20200;-67
2022/01/20 10:12:12;;;;;;;10.48;7.57;;;;;;;9.28;32.92;95233.59;5118798;28;20207;-69
2022/01/20 10:14:40;;;;;;;8.05;6.00;;;;;;;9.51;31.84;95236.75;5117846;28;20203;-69
2022/01/20 10:17:18;;;;;;;7.60;4.85;;;;;;;10.04;29.71;95220.38;5119000;28;20204;-69
2022/01/20 10:19:45;;;;;;;5.97;4.57;;;;;;;10.29;28.48;95215.66;5118529;28;20199;-69
2022/01/20 10:22:14;;;;;;;7.97;4.70;;;;;;;10.35;27.08;95209.56;5119303;28;20195;-69
2022/01/20 10:24:41;;;;;;;12.38;9.85;;;;;;;10.37;27.59;95217.47;5117978;28;20202;-69
2022/01/20 10:27:13;;;;;;;23.63;17.33;;;;;;;10.08;28.78;95196.47;5118631;28;20188;-69
2022/01/20 10:29:40;;;;;;;12.52;10.05;;;;;;;10.23;28.81;95195.75;5118580;28;20180;-69
2022/01/20 10:32:07;;;;;;;14.80;11.55;;;;;;;10.49;28.57;95197.31;5118197;28;20180;-69
2022/01/20 10:34:36;;;;;;;7.85;3.97;;;;;;;10.68;25.45;95186.47;5117928;28;20196;-69
2022/01/20 10:37:06;;;;;;;7.05;4.20;;;;;;;10.98;26.07;95175.88;5118331;28;20252;-69
2022/01/20 10:39:35;;;;;;;8.55;4.38;;;;;;;11.48;25.35;95176.41;5117328;28;20223;-69
2022/01/20 10:42:05;;;;;;;7.72;4.75;;;;;;;11.75;23.92;95175.47;5118410;28;20296;-69
2022/01/20 10:44:46;;;;;;;8.25;4.80;;;;;;;11.94;25.05;95171.22;5117263;28;20195;-69
2022/01/20 10:47:14;;;;;;;8.77;4.85;;;;;;;12.19;25.07;95169.03;5118455;28;20202;-71
2022/01/20 10:49:42;;;;;;;8.57;5.45;;;;;;;12.48;25.58;95182.31;5117066;28;20207;-70
2022/01/20 10:52:10;;;;;;;4.70;3.10;;;;;;;12.66;23.08;95173.59;5117002;28;20195;-69
2022/01/20 10:54:40;;;;;;;3.28;2.88;;;;;;;12.65;22.02;95166.47;5117911;28;20618;-68
2022/01/20 10:57:07;;;;;;;3.60;2.90;;;;;;;12.65;21.58;95155.41;5118396;28;20199;-69
2022/01/20 10:59:35;;;;;;;4.25;3.25;;;;;;;12.72;21.72;95159.09;5117896;28;20273;-69
2022/01/20 11:02:06;;;;;;;4.43;3.00;;;;;;;12.72;19.76;95158.31;5117210;28;20188;-69
2022/01/20 11:04:34;;;;;;;4.30;3.15;;;;;;;12.43;20.75;95154.94;5116663;28;20623;-67
2022/01/20 11:07:04;;;;;;;2.58;2.03;;;;;;;12.08;21.41;95148.63;5116949;28;20195;-67
2022/01/20 11:09:33;;;;;;;3.35;2.28;;;;;;;11.96;21.34;95149.56;5116555;28;20192;-68
2022/01/20 11:12:01;;;;;;;4.25;2.70;;;;;;;11.82;22.05;95144.47;5116866;28;20198;-66
2022/01/20 11:14:28;;;;;;;3.92;2.58;;;;;;;12.13;22.42;95145.56;5117407;28;20523;-67
2022/01/20 11:16:55;;;;;;;3.40;2.92;;;;;;;12.08;21.71;95141.13;5117553;28;20199;-66
2022/01/20 11:19:23;;;;;;;2.83;2.17;;;;;;;12.25;22.65;95143.50;5117407;28;20208;-67
2022/01/20 11:21:50;;;;;;;4.25;2.65;;;;;;;12.57;22.06;95148.13;5118024;28;20198;-68
2022/01/20 11:24:21;;;;;;;5.28;3.00;;;;;;;12.66;21.72;95148.69;5117288;28;20183;-68
2022/01/20 11:26:55;;;;;;;4.70;2.95;;;;;;;12.83;21.42;95128.88;5117332;28;20191;-68
2022/01/20 11:29:22;;;;;;;5.38;3.10;;;;;;;13.05;21.57;95126.50;5117295;28;20252;-68
2022/01/20 11:31:50;;;;;;;3.90;3.00;;;;;;;13.18;21.45;95130.69;5116247;28;20420;-68
2022/01/20 11:34:18;;;;;;;3.47;3.17;;;;;;;13.28;21.90;95134.88;5116153;28;20192;-68
2022/01/20 11:36:47;;;;;;;5.82;3.30;;;;;;;13.42;21.43;95115.72;5117090;28;20316;-69
2022/01/20 11:39:14;;;;;;;3.78;3.30;;;;;;;13.51;21.67;95113.50;5117046;28;20218;-69
2022/01/20 11:41:43;;;;;;;3.40;3.05;;;;;;;13.53;21.40;95125.00;5116968;28;20292;-67
2022/01/20 11:44:12;;;;;;;4.18;2.90;;;;;;;13.41;20.74;95112.16;5116543;28;20226;-68
2022/01/20 11:46:40;;;;;;;4.40;3.22;;;;;;;13.63;21.06;95129.16;5115986;28;20195;-68
2022/01/20 11:49:08;;;;;;;3.92;3.05;;;;;;;13.80;20.96;95122.25;5115976;28;20194;-65
2022/01/20 11:51:46;;;;;;;3.45;3.10;;;;;;;13.92;20.66;95114.56;5116880;28;20237;-64
2022/01/20 11:54:18;;;;;;;4.88;3.20;;;;;;;14.01;20.24;95122.59;5116788;28;20195;-65
2022/01/20 11:56:45;;;;;;;3.70;2.90;;;;;;;14.05;20.81;95115.16;5116627;28;20262;-65
2022/01/20 11:59:13;;;;;;;4.35;3.53;;;;;;;14.10;20.32;95108.47;5116426;28;20210;-69
2022/01/20 12:01:45;;;;;;;5.25;3.33;;;;;;;13.99;21.22;95101.97;5116883;28;20184;-67
2022/01/20 12:04:12;;;;;;;3.38;3.00;;;;;;;14.21;21.09;95107.44;5115828;28;20207;-68
2022/01/20 12:06:42;;;;;;;4.18;2.92;;;;;;;14.37;20.67;95098.91;5116513;28;20202;-68
2022/01/20 12:09:09;;;;;;;5.10;3.45;;;;;;;14.38;20.51;95097.78;5116562;28;20241;-67
2022/01/20 12:11:39;;;;;;;4.77;3.57;;;;;;;14.39;20.54;95093.81;5116082;28;20530;-67
2022/01/20 12:14:07;;;;;;;5.38;3.30;;;;;;;14.57;20.93;95101.59;5116106;28;20240;-67
2022/01/20 12:16:34;;;;;;;3.72;2.45;;;;;;;14.49;21.14;95102.63;5116552;28;20204;-67
2022/01/20 12:19:02;;;;;;;4.35;2.78;;;;;;;14.72;21.11;95097.81;5116297;28;20268;-67
2022/01/20 12:21:32;;;;;;;2.95;2.65;;;;;;;15.26;20.15;95096.41;5115242;28;20191;-67
2022/01/20 12:24:00;;;;;;;3.10;2.58;;;;;;;15.74;20.24;95085.31;5115237;28;20196;-67
2022/01/20 12:26:27;;;;;;;2.90;2.50;;;;;;;15.99;19.61;95091.06;5116223;28;20241;-67